sensor_id;sensor_type;location;lat;lon;timestamp;P1;durP1;ratioP1;P2;durP2;ratioP2
19907;SDS011;10116;53.112;7.356;2023-05-21T00:01:38;22.93;;;3.37;;
19907;SDS011;10116;53.112;7.356;2023-05-21T00:04:03;1.73;;;1.57;;
19907;SDS011;10116;53.112;7.356;2023-05-21T00:06:32;1.40;;;1.27;;
19907;SDS011;10116;53.112;7.356;2023-05-21T00:08:59;1.60;;;1.50;;
19907;SDS011;10116;53.112;7.356;2023-05-21T00:11:26;1.90;;;1.80;;
19907;SDS011;10116;53.112;7.356;2023-05-21T00:13:51;1.93;;;1.83;;
19907;SDS011;10116;53.112;7.356;2023-05-21T00:16:17;2.13;;;2.03;;
19907;SDS011;10116;53.112;7.356;2023-05-21T00:18:42;1.60;;;1.50;;
19907;SDS011;10116;53.112;7.356;2023-05-21T00:21:09;1.63;;;1.53;;
19907;SDS011;10116;53.112;7.356;2023-05-21T00:23:34;1.30;;;1.30;;
19907;SDS011;10116;53.112;7.356;2023-05-21T00:26:01;1.70;;;1.60;;
19907;SDS011;10116;53.112;7.356;2023-05-21T00:28:27;1.83;;;1.73;;
19907;SDS011;10116;53.112;7.356;2023-05-21T00:30:52;2.07;;;1.90;;
19907;SDS011;10116;53.112;7.356;2023-05-21T00:33:18;1.60;;;1.50;;
19907;SDS011;10116;53.112;7.356;2023-05-21T00:35:45;1.70;;;1.70;;
19907;SDS011;10116;53.112;7.356;2023-05-21T00:38:11;2.00;;;1.90;;
19907;SDS011;10116;53.112;7.356;2023-05-21T00:40:38;2.90;;;1.77;;
19907;SDS011;10116;53.112;7.356;2023-05-21T00:43:05;1.73;;;1.63;;
19907;SDS011;10116;53.112;7.356;2023-05-21T00:45:34;1.70;;;1.60;;
19907;SDS011;10116;53.112;7.356;2023-05-21T00:48:01;1.40;;;1.33;;
19907;SDS011;10116;53.112;7.356;2023-05-21T00:50:28;1.87;;;1.77;;
19907;SDS011;10116;53.112;7.356;2023-05-21T00:52:54;1.20;;;1.20;;
19907;SDS011;10116;53.112;7.356;2023-05-21T00:55:20;1.30;;;1.30;;
19907;SDS011;10116;53.112;7.356;2023-05-21T00:57:46;1.20;;;1.20;;
19907;SDS011;10116;53.112;7.356;2023-05-21T01:00:13;1.40;;;1.30;;
19907;SDS011;10116;53.112;7.356;2023-05-21T01:02:39;1.57;;;1.57;;
19907;SDS011;10116;53.112;7.356;2023-05-21T01:05:04;1.73;;;1.63;;
19907;SDS011;10116;53.112;7.356;2023-05-21T01:07:32;1.50;;;1.50;;
19907;SDS011;10116;53.112;7.356;2023-05-21T01:09:59;1.40;;;1.40;;
19907;SDS011;10116;53.112;7.356;2023-05-21T01:12:29;1.30;;;1.30;;
19907;SDS011;10116;53.112;7.356;2023-05-21T01:14:57;1.53;;;1.43;;
19907;SDS011;10116;53.112;7.356;2023-05-21T01:17:24;1.60;;;1.50;;
19907;SDS011;10116;53.112;7.356;2023-05-21T01:19:52;1.40;;;1.40;;
19907;SDS011;10116;53.112;7.356;2023-05-21T01:22:18;1.20;;;1.20;;
19907;SDS011;10116;53.112;7.356;2023-05-21T01:24:48;1.50;;;1.40;;
19907;SDS011;10116;53.112;7.356;2023-05-21T01:27:14;1.50;;;1.40;;
19907;SDS011;10116;53.112;7.356;2023-05-21T01:29:39;1.40;;;1.40;;
19907;SDS011;10116;53.112;7.356;2023-05-21T01:32:11;2.10;;;2.00;;
19907;SDS011;10116;53.112;7.356;2023-05-21T01:34:47;1.30;;;1.30;;
19907;SDS011;10116;53.112;7.356;2023-05-21T01:37:33;1.57;;;1.47;;
19907;SDS011;10116;53.112;7.356;2023-05-21T01:40:10;1.60;;;1.50;;
19907;SDS011;10116;53.112;7.356;2023-05-21T01:42:45;1.53;;;1.43;;
19907;SDS011;10116;53.112;7.356;2023-05-21T01:45:12;1.67;;;1.57;;
19907;SDS011;10116;53.112;7.356;2023-05-21T01:47:40;1.30;;;1.30;;
19907;SDS011;10116;53.112;7.356;2023-05-21T01:50:08;1.60;;;1.50;;
19907;SDS011;10116;53.112;7.356;2023-05-21T01:52:35;1.43;;;1.33;;
19907;SDS011;10116;53.112;7.356;2023-05-21T01:55:00;1.20;;;1.20;;
19907;SDS011;10116;53.112;7.356;2023-05-21T01:57:26;1.43;;;1.43;;
19907;SDS011;10116;53.112;7.356;2023-05-21T01:59:52;1.33;;;1.33;;
19907;SDS011;10116;53.112;7.356;2023-05-21T02:02:18;1.63;;;1.53;;
19907;SDS011;10116;53.112;7.356;2023-05-21T02:04:43;1.60;;;1.50;;
19907;SDS011;10116;53.112;7.356;2023-05-21T02:07:10;1.40;;;1.30;;
19907;SDS011;10116;53.112;7.356;2023-05-21T02:09:38;1.33;;;1.33;;
19907;SDS011;10116;53.112;7.356;2023-05-21T02:12:04;1.93;;;1.83;;
19907;SDS011;10116;53.112;7.356;2023-05-21T02:14:31;1.43;;;1.43;;
19907;SDS011;10116;53.112;7.356;2023-05-21T02:16:58;1.50;;;1.40;;
19907;SDS011;10116;53.112;7.356;2023-05-21T02:19:24;1.30;;;1.30;;
19907;SDS011;10116;53.112;7.356;2023-05-21T02:21:51;1.40;;;1.30;;
19907;SDS011;10116;53.112;7.356;2023-05-21T02:24:16;1.20;;;1.20;;
19907;SDS011;10116;53.112;7.356;2023-05-21T02:26:42;1.37;;;1.37;;
19907;SDS011;10116;53.112;7.356;2023-05-21T02:29:08;1.50;;;1.50;;
19907;SDS011;10116;53.112;7.356;2023-05-21T02:31:33;1.33;;;1.23;;
19907;SDS011;10116;53.112;7.356;2023-05-21T02:33:59;1.43;;;1.30;;
19907;SDS011;10116;53.112;7.356;2023-05-21T02:36:24;1.63;;;1.27;;
19907;SDS011;10116;53.112;7.356;2023-05-21T02:38:52;1.53;;;1.43;;
19907;SDS011;10116;53.112;7.356;2023-05-21T02:41:18;1.40;;;1.40;;
19907;SDS011;10116;53.112;7.356;2023-05-21T02:43:45;1.50;;;1.43;;
19907;SDS011;10116;53.112;7.356;2023-05-21T02:46:11;1.80;;;1.70;;
19907;SDS011;10116;53.112;7.356;2023-05-21T02:48:36;1.40;;;1.37;;
19907;SDS011;10116;53.112;7.356;2023-05-21T02:51:02;1.07;;;1.03;;
19907;SDS011;10116;53.112;7.356;2023-05-21T02:53:27;1.33;;;1.23;;
19907;SDS011;10116;53.112;7.356;2023-05-21T02:55:53;1.30;;;1.20;;
19907;SDS011;10116;53.112;7.356;2023-05-21T02:58:19;2.60;;;1.50;;
19907;SDS011;10116;53.112;7.356;2023-05-21T03:00:47;1.40;;;1.40;;
19907;SDS011;10116;53.112;7.356;2023-05-21T03:03:13;1.57;;;1.47;;
19907;SDS011;10116;53.112;7.356;2023-05-21T03:05:38;1.27;;;1.27;;
19907;SDS011;10116;53.112;7.356;2023-05-21T03:08:04;1.60;;;1.50;;
19907;SDS011;10116;53.112;7.356;2023-05-21T03:10:29;1.37;;;1.37;;
19907;SDS011;10116;53.112;7.356;2023-05-21T03:12:55;2.10;;;1.33;;
19907;SDS011;10116;53.112;7.356;2023-05-21T03:15:21;1.77;;;1.67;;
19907;SDS011;10116;53.112;7.356;2023-05-21T03:17:48;1.23;;;1.23;;
19907;SDS011;10116;53.112;7.356;2023-05-21T03:20:14;1.30;;;1.30;;
19907;SDS011;10116;53.112;7.356;2023-05-21T03:22:42;2.30;;;1.30;;
19907;SDS011;10116;53.112;7.356;2023-05-21T03:25:09;1.33;;;1.30;;
19907;SDS011;10116;53.112;7.356;2023-05-21T03:27:36;1.50;;;1.40;;
19907;SDS011;10116;53.112;7.356;2023-05-21T03:30:03;1.13;;;1.13;;
19907;SDS011;10116;53.112;7.356;2023-05-21T03:32:29;1.20;;;1.20;;
19907;SDS011;10116;53.112;7.356;2023-05-21T03:34:54;1.20;;;1.20;;
19907;SDS011;10116;53.112;7.356;2023-05-21T03:37:20;1.30;;;1.30;;
19907;SDS011;10116;53.112;7.356;2023-05-21T03:39:45;1.63;;;1.53;;
19907;SDS011;10116;53.112;7.356;2023-05-21T03:42:11;1.40;;;1.40;;
19907;SDS011;10116;53.112;7.356;2023-05-21T03:44:38;1.60;;;1.50;;
19907;SDS011;10116;53.112;7.356;2023-05-21T03:47:03;1.00;;;1.00;;
19907;SDS011;10116;53.112;7.356;2023-05-21T03:49:29;0.97;;;0.97;;
19907;SDS011;10116;53.112;7.356;2023-05-21T03:51:55;1.17;;;1.17;;
19907;SDS011;10116;53.112;7.356;2023-05-21T03:54:20;1.30;;;1.30;;
19907;SDS011;10116;53.112;7.356;2023-05-21T03:56:46;1.40;;;1.40;;
19907;SDS011;10116;53.112;7.356;2023-05-21T03:59:11;1.37;;;1.37;;
19907;SDS011;10116;53.112;7.356;2023-05-21T04:01:37;1.50;;;1.40;;
19907;SDS011;10116;53.112;7.356;2023-05-21T04:04:03;1.87;;;1.73;;
19907;SDS011;10116;53.112;7.356;2023-05-21T04:06:28;1.30;;;1.30;;
19907;SDS011;10116;53.112;7.356;2023-05-21T04:08:54;1.13;;;1.13;;
19907;SDS011;10116;53.112;7.356;2023-05-21T04:11:20;1.40;;;1.30;;
19907;SDS011;10116;53.112;7.356;2023-05-21T04:13:46;1.60;;;1.50;;
19907;SDS011;10116;53.112;7.356;2023-05-21T04:16:12;1.37;;;1.23;;
19907;SDS011;10116;53.112;7.356;2023-05-21T04:18:38;1.90;;;1.80;;
19907;SDS011;10116;53.112;7.356;2023-05-21T04:21:05;4.13;;;1.53;;
19907;SDS011;10116;53.112;7.356;2023-05-21T04:23:31;1.20;;;1.20;;
19907;SDS011;10116;53.112;7.356;2023-05-21T04:25:57;1.57;;;1.40;;
19907;SDS011;10116;53.112;7.356;2023-05-21T04:28:23;1.57;;;1.30;;
19907;SDS011;10116;53.112;7.356;2023-05-21T04:30:48;1.40;;;1.40;;
19907;SDS011;10116;53.112;7.356;2023-05-21T04:33:14;1.43;;;1.33;;
19907;SDS011;10116;53.112;7.356;2023-05-21T04:35:48;1.40;;;1.30;;
19907;SDS011;10116;53.112;7.356;2023-05-21T04:38:15;1.13;;;1.00;;
19907;SDS011;10116;53.112;7.356;2023-05-21T04:40:50;1.20;;;1.20;;
19907;SDS011;10116;53.112;7.356;2023-05-21T04:43:16;1.53;;;1.43;;
19907;SDS011;10116;53.112;7.356;2023-05-21T04:45:42;1.83;;;1.70;;
19907;SDS011;10116;53.112;7.356;2023-05-21T04:48:08;1.80;;;1.70;;
19907;SDS011;10116;53.112;7.356;2023-05-21T04:50:33;1.70;;;1.57;;
19907;SDS011;10116;53.112;7.356;2023-05-21T04:52:59;2.00;;;1.90;;
19907;SDS011;10116;53.112;7.356;2023-05-21T04:55:26;2.10;;;2.00;;
19907;SDS011;10116;53.112;7.356;2023-05-21T04:57:52;1.97;;;1.87;;
19907;SDS011;10116;53.112;7.356;2023-05-21T05:00:18;1.93;;;1.80;;
19907;SDS011;10116;53.112;7.356;2023-05-21T05:02:44;1.67;;;1.50;;
19907;SDS011;10116;53.112;7.356;2023-05-21T05:05:10;1.73;;;1.63;;
19907;SDS011;10116;53.112;7.356;2023-05-21T05:07:35;1.60;;;1.50;;
19907;SDS011;10116;53.112;7.356;2023-05-21T05:10:01;2.40;;;2.20;;
19907;SDS011;10116;53.112;7.356;2023-05-21T05:12:27;2.40;;;1.50;;
19907;SDS011;10116;53.112;7.356;2023-05-21T05:14:52;1.60;;;1.57;;
19907;SDS011;10116;53.112;7.356;2023-05-21T05:17:18;2.33;;;2.00;;
19907;SDS011;10116;53.112;7.356;2023-05-21T05:19:44;2.53;;;2.20;;
19907;SDS011;10116;53.112;7.356;2023-05-21T05:22:09;2.10;;;2.00;;
19907;SDS011;10116;53.112;7.356;2023-05-21T05:24:35;2.03;;;1.93;;
19907;SDS011;10116;53.112;7.356;2023-05-21T05:27:01;2.20;;;2.10;;
19907;SDS011;10116;53.112;7.356;2023-05-21T05:29:26;1.80;;;1.80;;
19907;SDS011;10116;53.112;7.356;2023-05-21T05:31:52;2.10;;;2.00;;
19907;SDS011;10116;53.112;7.356;2023-05-21T05:34:17;1.97;;;1.87;;
19907;SDS011;10116;53.112;7.356;2023-05-21T05:36:43;1.90;;;1.80;;
19907;SDS011;10116;53.112;7.356;2023-05-21T05:39:09;1.87;;;1.77;;
19907;SDS011;10116;53.112;7.356;2023-05-21T05:41:35;1.90;;;1.80;;
19907;SDS011;10116;53.112;7.356;2023-05-21T05:44:01;1.87;;;1.80;;
19907;SDS011;10116;53.112;7.356;2023-05-21T05:46:27;2.13;;;1.87;;
19907;SDS011;10116;53.112;7.356;2023-05-21T05:48:53;1.70;;;1.70;;
19907;SDS011;10116;53.112;7.356;2023-05-21T05:51:19;1.83;;;1.73;;
19907;SDS011;10116;53.112;7.356;2023-05-21T05:53:44;1.80;;;1.70;;
19907;SDS011;10116;53.112;7.356;2023-05-21T05:56:10;1.40;;;1.33;;
19907;SDS011;10116;53.112;7.356;2023-05-21T05:58:35;2.00;;;1.90;;
19907;SDS011;10116;53.112;7.356;2023-05-21T06:01:01;1.97;;;1.87;;
19907;SDS011;10116;53.112;7.356;2023-05-21T06:03:27;1.57;;;1.57;;
19907;SDS011;10116;53.112;7.356;2023-05-21T06:05:53;2.03;;;1.93;;
19907;SDS011;10116;53.112;7.356;2023-05-21T06:08:19;1.60;;;1.60;;
19907;SDS011;10116;53.112;7.356;2023-05-21T06:10:44;1.93;;;1.83;;
19907;SDS011;10116;53.112;7.356;2023-05-21T06:13:10;3.43;;;1.97;;
19907;SDS011;10116;53.112;7.356;2023-05-21T06:15:35;2.07;;;1.90;;
19907;SDS011;10116;53.112;7.356;2023-05-21T06:18:03;1.70;;;1.60;;
19907;SDS011;10116;53.112;7.356;2023-05-21T06:20:28;1.70;;;1.60;;
19907;SDS011;10116;53.112;7.356;2023-05-21T06:22:54;1.83;;;1.70;;
19907;SDS011;10116;53.112;7.356;2023-05-21T06:25:20;2.07;;;1.87;;
19907;SDS011;10116;53.112;7.356;2023-05-21T06:27:46;5.20;;;1.53;;
19907;SDS011;10116;53.112;7.356;2023-05-21T06:30:11;1.37;;;1.30;;
19907;SDS011;10116;53.112;7.356;2023-05-21T06:32:37;1.60;;;1.60;;
19907;SDS011;10116;53.112;7.356;2023-05-21T06:35:02;2.43;;;2.03;;
19907;SDS011;10116;53.112;7.356;2023-05-21T06:37:28;1.90;;;1.80;;
19907;SDS011;10116;53.112;7.356;2023-05-21T06:39:54;1.97;;;1.87;;
19907;SDS011;10116;53.112;7.356;2023-05-21T06:42:20;1.60;;;1.60;;
19907;SDS011;10116;53.112;7.356;2023-05-21T06:44:45;2.70;;;1.47;;
19907;SDS011;10116;53.112;7.356;2023-05-21T06:47:11;1.60;;;1.50;;
19907;SDS011;10116;53.112;7.356;2023-05-21T06:49:36;1.77;;;1.77;;
19907;SDS011;10116;53.112;7.356;2023-05-21T06:52:02;1.70;;;1.70;;
19907;SDS011;10116;53.112;7.356;2023-05-21T06:54:28;1.93;;;1.83;;
19907;SDS011;10116;53.112;7.356;2023-05-21T06:56:53;1.50;;;1.50;;
19907;SDS011;10116;53.112;7.356;2023-05-21T06:59:19;2.13;;;1.97;;
19907;SDS011;10116;53.112;7.356;2023-05-21T07:01:45;1.60;;;1.50;;
19907;SDS011;10116;53.112;7.356;2023-05-21T07:04:10;1.83;;;1.73;;
19907;SDS011;10116;53.112;7.356;2023-05-21T07:06:39;2.97;;;1.43;;
19907;SDS011;10116;53.112;7.356;2023-05-21T07:09:04;2.10;;;1.77;;
19907;SDS011;10116;53.112;7.356;2023-05-21T07:11:30;1.70;;;1.60;;
19907;SDS011;10116;53.112;7.356;2023-05-21T07:13:57;1.73;;;1.63;;
19907;SDS011;10116;53.112;7.356;2023-05-21T07:16:24;1.53;;;1.43;;
19907;SDS011;10116;53.112;7.356;2023-05-21T07:18:50;1.67;;;1.57;;
19907;SDS011;10116;53.112;7.356;2023-05-21T07:21:16;1.70;;;1.60;;
19907;SDS011;10116;53.112;7.356;2023-05-21T07:23:42;1.70;;;1.60;;
19907;SDS011;10116;53.112;7.356;2023-05-21T07:26:08;1.83;;;1.70;;
19907;SDS011;10116;53.112;7.356;2023-05-21T07:28:34;2.27;;;1.90;;
19907;SDS011;10116;53.112;7.356;2023-05-21T07:31:00;1.57;;;1.57;;
19907;SDS011;10116;53.112;7.356;2023-05-21T07:33:26;1.67;;;1.57;;
19907;SDS011;10116;53.112;7.356;2023-05-21T07:35:52;1.90;;;1.80;;
19907;SDS011;10116;53.112;7.356;2023-05-21T07:38:18;2.57;;;2.00;;
19907;SDS011;10116;53.112;7.356;2023-05-21T07:40:43;2.30;;;1.87;;
19907;SDS011;10116;53.112;7.356;2023-05-21T07:43:09;2.00;;;1.90;;
19907;SDS011;10116;53.112;7.356;2023-05-21T07:45:34;3.33;;;2.10;;
19907;SDS011;10116;53.112;7.356;2023-05-21T07:48:00;2.37;;;2.00;;
19907;SDS011;10116;53.112;7.356;2023-05-21T07:50:26;3.33;;;2.60;;
19907;SDS011;10116;53.112;7.356;2023-05-21T07:52:52;2.60;;;2.40;;
19907;SDS011;10116;53.112;7.356;2023-05-21T07:55:18;2.20;;;2.10;;
19907;SDS011;10116;53.112;7.356;2023-05-21T07:57:43;3.40;;;3.10;;
19907;SDS011;10116;53.112;7.356;2023-05-21T08:00:09;4.87;;;2.77;;
19907;SDS011;10116;53.112;7.356;2023-05-21T08:02:38;3.07;;;2.30;;
19907;SDS011;10116;53.112;7.356;2023-05-21T08:05:04;3.00;;;2.70;;
19907;SDS011;10116;53.112;7.356;2023-05-21T08:07:30;3.03;;;2.87;;
19907;SDS011;10116;53.112;7.356;2023-05-21T08:09:56;3.10;;;2.80;;
19907;SDS011;10116;53.112;7.356;2023-05-21T08:12:22;8.90;;;4.00;;
19907;SDS011;10116;53.112;7.356;2023-05-21T08:14:48;10.80;;;2.93;;
19907;SDS011;10116;53.112;7.356;2023-05-21T08:17:14;4.73;;;3.00;;
19907;SDS011;10116;53.112;7.356;2023-05-21T08:19:40;3.20;;;2.87;;
19907;SDS011;10116;53.112;7.356;2023-05-21T08:22:06;4.17;;;2.70;;
19907;SDS011;10116;53.112;7.356;2023-05-21T08:24:33;6.40;;;3.10;;
19907;SDS011;10116;53.112;7.356;2023-05-21T08:26:59;5.30;;;3.00;;
19907;SDS011;10116;53.112;7.356;2023-05-21T08:29:24;4.67;;;2.97;;
19907;SDS011;10116;53.112;7.356;2023-05-21T08:31:50;4.87;;;2.60;;
19907;SDS011;10116;53.112;7.356;2023-05-21T08:34:16;6.70;;;2.73;;
19907;SDS011;10116;53.112;7.356;2023-05-21T08:36:42;6.83;;;3.10;;
19907;SDS011;10116;53.112;7.356;2023-05-21T08:39:10;5.97;;;2.83;;
19907;SDS011;10116;53.112;7.356;2023-05-21T08:41:36;6.53;;;2.80;;
19907;SDS011;10116;53.112;7.356;2023-05-21T08:44:03;3.37;;;3.00;;
19907;SDS011;10116;53.112;7.356;2023-05-21T08:46:35;13.37;;;2.77;;
19907;SDS011;10116;53.112;7.356;2023-05-21T08:49:05;6.57;;;2.50;;
19907;SDS011;10116;53.112;7.356;2023-05-21T08:51:35;3.60;;;2.90;;
19907;SDS011;10116;53.112;7.356;2023-05-21T08:54:02;3.83;;;2.30;;
19907;SDS011;10116;53.112;7.356;2023-05-21T08:56:30;3.47;;;3.00;;
19907;SDS011;10116;53.112;7.356;2023-05-21T08:58:57;5.00;;;2.37;;
19907;SDS011;10116;53.112;7.356;2023-05-21T09:01:23;3.20;;;2.43;;
19907;SDS011;10116;53.112;7.356;2023-05-21T09:03:50;3.40;;;2.60;;
19907;SDS011;10116;53.112;7.356;2023-05-21T09:06:17;2.90;;;2.57;;
19907;SDS011;10116;53.112;7.356;2023-05-21T09:08:44;6.17;;;2.57;;
19907;SDS011;10116;53.112;7.356;2023-05-21T09:11:13;3.57;;;2.30;;
19907;SDS011;10116;53.112;7.356;2023-05-21T09:13:40;5.27;;;2.10;;
19907;SDS011;10116;53.112;7.356;2023-05-21T09:16:08;2.50;;;2.30;;
19907;SDS011;10116;53.112;7.356;2023-05-21T09:18:34;4.53;;;2.80;;
19907;SDS011;10116;53.112;7.356;2023-05-21T09:21:21;2.60;;;2.40;;
19907;SDS011;10116;53.112;7.356;2023-05-21T09:23:55;3.50;;;2.80;;
19907;SDS011;10116;53.112;7.356;2023-05-21T09:26:23;3.67;;;2.40;;
19907;SDS011;10116;53.112;7.356;2023-05-21T09:28:55;8.33;;;2.90;;
19907;SDS011;10116;53.112;7.356;2023-05-21T09:31:22;2.33;;;2.10;;
19907;SDS011;10116;53.112;7.356;2023-05-21T09:33:48;2.50;;;2.30;;
19907;SDS011;10116;53.112;7.356;2023-05-21T09:36:16;2.53;;;2.33;;
19907;SDS011;10116;53.112;7.356;2023-05-21T09:38:44;4.80;;;2.30;;
19907;SDS011;10116;53.112;7.356;2023-05-21T09:41:10;2.43;;;2.33;;
19907;SDS011;10116;53.112;7.356;2023-05-21T09:43:35;2.67;;;2.47;;
19907;SDS011;10116;53.112;7.356;2023-05-21T09:46:01;3.20;;;2.60;;
19907;SDS011;10116;53.112;7.356;2023-05-21T09:48:48;2.50;;;2.40;;
19907;SDS011;10116;53.112;7.356;2023-05-21T09:51:13;2.77;;;2.57;;
19907;SDS011;10116;53.112;7.356;2023-05-21T09:53:47;3.40;;;2.67;;
19907;SDS011;10116;53.112;7.356;2023-05-21T09:56:13;2.40;;;2.10;;
19907;SDS011;10116;53.112;7.356;2023-05-21T09:58:39;1.93;;;1.83;;
19907;SDS011;10116;53.112;7.356;2023-05-21T10:01:05;3.07;;;2.17;;
19907;SDS011;10116;53.112;7.356;2023-05-21T10:03:32;4.40;;;2.70;;
19907;SDS011;10116;53.112;7.356;2023-05-21T10:06:01;2.30;;;2.10;;
19907;SDS011;10116;53.112;7.356;2023-05-21T10:08:28;2.80;;;2.60;;
19907;SDS011;10116;53.112;7.356;2023-05-21T10:11:00;2.73;;;2.33;;
19907;SDS011;10116;53.112;7.356;2023-05-21T10:13:27;2.87;;;2.67;;
19907;SDS011;10116;53.112;7.356;2023-05-21T10:15:54;2.43;;;2.33;;
19907;SDS011;10116;53.112;7.356;2023-05-21T10:18:25;3.07;;;2.50;;
19907;SDS011;10116;53.112;7.356;2023-05-21T10:20:52;2.87;;;2.67;;
19907;SDS011;10116;53.112;7.356;2023-05-21T10:23:17;2.50;;;2.40;;
19907;SDS011;10116;53.112;7.356;2023-05-21T10:25:44;3.83;;;2.67;;
19907;SDS011;10116;53.112;7.356;2023-05-21T10:28:12;3.27;;;2.60;;
19907;SDS011;10116;53.112;7.356;2023-05-21T10:30:40;2.80;;;2.60;;
19907;SDS011;10116;53.112;7.356;2023-05-21T10:33:07;2.83;;;2.63;;
19907;SDS011;10116;53.112;7.356;2023-05-21T10:35:33;3.03;;;2.80;;
19907;SDS011;10116;53.112;7.356;2023-05-21T10:37:58;5.10;;;2.90;;
19907;SDS011;10116;53.112;7.356;2023-05-21T10:40:28;3.43;;;2.70;;
19907;SDS011;10116;53.112;7.356;2023-05-21T10:59:47;3.63;;;3.33;;
19907;SDS011;10116;53.112;7.356;2023-05-21T11:02:13;3.27;;;3.07;;
19907;SDS011;10116;53.112;7.356;2023-05-21T11:04:43;3.47;;;3.17;;
19907;SDS011;10116;53.112;7.356;2023-05-21T11:07:09;3.57;;;3.27;;
19907;SDS011;10116;53.112;7.356;2023-05-21T11:09:36;4.03;;;3.33;;
19907;SDS011;10116;53.112;7.356;2023-05-21T11:12:02;3.63;;;3.33;;
19907;SDS011;10116;53.112;7.356;2023-05-21T11:19:33;5.07;;;3.60;;
19907;SDS011;10116;53.112;7.356;2023-05-21T11:22:21;4.47;;;4.07;;
19907;SDS011;10116;53.112;7.356;2023-05-21T11:24:51;4.23;;;3.83;;
19907;SDS011;10116;53.112;7.356;2023-05-21T11:35:35;4.73;;;4.40;;
19907;SDS011;10116;53.112;7.356;2023-05-21T11:38:21;5.37;;;4.87;;
19907;SDS011;10116;53.112;7.356;2023-05-21T11:40:50;5.67;;;4.90;;
19907;SDS011;10116;53.112;7.356;2023-05-21T11:43:18;5.23;;;4.73;;
19907;SDS011;10116;53.112;7.356;2023-05-21T11:45:45;5.10;;;4.70;;
19907;SDS011;10116;53.112;7.356;2023-05-21T11:48:14;6.83;;;5.80;;
19907;SDS011;10116;53.112;7.356;2023-05-21T11:50:40;5.60;;;5.10;;
19907;SDS011;10116;53.112;7.356;2023-05-21T11:53:09;5.73;;;5.33;;
19907;SDS011;10116;53.112;7.356;2023-05-21T11:55:39;6.63;;;5.00;;
19907;SDS011;10116;53.112;7.356;2023-05-21T11:58:11;5.87;;;5.43;;
19907;SDS011;10116;53.112;7.356;2023-05-21T12:00:38;6.10;;;5.30;;
19907;SDS011;10116;53.112;7.356;2023-05-21T12:03:04;4.83;;;4.53;;
19907;SDS011;10116;53.112;7.356;2023-05-21T12:08:20;7.17;;;6.47;;
19907;SDS011;10116;53.112;7.356;2023-05-21T12:10:55;5.90;;;5.50;;
19907;SDS011;10116;53.112;7.356;2023-05-21T12:13:23;6.30;;;5.73;;
19907;SDS011;10116;53.112;7.356;2023-05-21T12:15:51;6.00;;;5.60;;
19907;SDS011;10116;53.112;7.356;2023-05-21T12:18:17;5.93;;;5.43;;
19907;SDS011;10116;53.112;7.356;2023-05-21T12:20:43;5.77;;;5.37;;
19907;SDS011;10116;53.112;7.356;2023-05-21T12:23:17;6.43;;;5.90;;
19907;SDS011;10116;53.112;7.356;2023-05-21T12:25:44;6.97;;;6.37;;
19907;SDS011;10116;53.112;7.356;2023-05-21T12:28:10;5.73;;;5.30;;
19907;SDS011;10116;53.112;7.356;2023-05-21T12:30:36;8.17;;;7.47;;
19907;SDS011;10116;53.112;7.356;2023-05-21T12:33:01;7.33;;;6.40;;
19907;SDS011;10116;53.112;7.356;2023-05-21T12:35:28;9.07;;;6.37;;
19907;SDS011;10116;53.112;7.356;2023-05-21T12:37:54;7.10;;;6.50;;
19907;SDS011;10116;53.112;7.356;2023-05-21T12:40:20;10.63;;;7.93;;
19907;SDS011;10116;53.112;7.356;2023-05-21T12:42:46;6.47;;;5.97;;
19907;SDS011;10116;53.112;7.356;2023-05-21T12:45:12;7.40;;;6.70;;
19907;SDS011;10116;53.112;7.356;2023-05-21T12:47:38;7.90;;;7.10;;
19907;SDS011;10116;53.112;7.356;2023-05-21T12:50:04;6.87;;;6.37;;
19907;SDS011;10116;53.112;7.356;2023-05-21T12:52:33;6.47;;;5.97;;
19907;SDS011;10116;53.112;7.356;2023-05-21T12:54:59;7.67;;;6.97;;
19907;SDS011;10116;53.112;7.356;2023-05-21T12:57:25;7.07;;;6.57;;
19907;SDS011;10116;53.112;7.356;2023-05-21T12:59:53;6.70;;;6.20;;
19907;SDS011;10116;53.112;7.356;2023-05-21T13:04:53;8.27;;;6.33;;
19907;SDS011;10116;53.112;7.356;2023-05-21T13:07:22;7.43;;;6.83;;
19907;SDS011;10116;53.112;7.356;2023-05-21T13:09:49;7.23;;;6.50;;
19907;SDS011;10116;53.112;7.356;2023-05-21T13:12:17;9.07;;;7.23;;
19907;SDS011;10116;53.112;7.356;2023-05-21T13:14:46;7.20;;;6.60;;
19907;SDS011;10116;53.112;7.356;2023-05-21T13:17:13;7.10;;;6.50;;
19907;SDS011;10116;53.112;7.356;2023-05-21T13:19:39;6.83;;;6.23;;
19907;SDS011;10116;53.112;7.356;2023-05-21T13:22:05;7.13;;;6.53;;
19907;SDS011;10116;53.112;7.356;2023-05-21T13:24:31;6.77;;;6.10;;
19907;SDS011;10116;53.112;7.356;2023-05-21T13:26:56;6.20;;;5.70;;
19907;SDS011;10116;53.112;7.356;2023-05-21T13:29:22;6.23;;;5.77;;
19907;SDS011;10116;53.112;7.356;2023-05-21T13:31:48;8.20;;;6.97;;
19907;SDS011;10116;53.112;7.356;2023-05-21T13:34:13;6.90;;;6.40;;
19907;SDS011;10116;53.112;7.356;2023-05-21T13:36:39;6.07;;;5.63;;
19907;SDS011;10116;53.112;7.356;2023-05-21T13:39:05;10.63;;;6.47;;
19907;SDS011;10116;53.112;7.356;2023-05-21T13:41:31;8.13;;;5.83;;
19907;SDS011;10116;53.112;7.356;2023-05-21T13:43:57;6.87;;;6.37;;
19907;SDS011;10116;53.112;7.356;2023-05-21T13:46:23;6.83;;;6.30;;
19907;SDS011;10116;53.112;7.356;2023-05-21T13:48:49;6.43;;;5.93;;
19907;SDS011;10116;53.112;7.356;2023-05-21T13:51:14;6.33;;;5.83;;
19907;SDS011;10116;53.112;7.356;2023-05-21T13:53:40;6.70;;;6.20;;
19907;SDS011;10116;53.112;7.356;2023-05-21T13:56:06;6.53;;;5.93;;
19907;SDS011;10116;53.112;7.356;2023-05-21T13:58:31;6.70;;;6.10;;
19907;SDS011;10116;53.112;7.356;2023-05-21T14:01:01;6.63;;;6.03;;
19907;SDS011;10116;53.112;7.356;2023-05-21T14:03:27;6.10;;;5.67;;
19907;SDS011;10116;53.112;7.356;2023-05-21T14:05:53;6.40;;;5.90;;
19907;SDS011;10116;53.112;7.356;2023-05-21T14:08:19;6.30;;;5.80;;
19907;SDS011;10116;53.112;7.356;2023-05-21T14:10:47;6.27;;;5.73;;
19907;SDS011;10116;53.112;7.356;2023-05-21T14:13:13;6.43;;;5.93;;
19907;SDS011;10116;53.112;7.356;2023-05-21T14:15:40;7.13;;;6.47;;
19907;SDS011;10116;53.112;7.356;2023-05-21T14:18:06;6.50;;;5.73;;
19907;SDS011;10116;53.112;7.356;2023-05-21T14:20:35;7.20;;;6.60;;
19907;SDS011;10116;53.112;7.356;2023-05-21T14:23:02;6.40;;;5.90;;
19907;SDS011;10116;53.112;7.356;2023-05-21T14:25:27;7.07;;;6.40;;
19907;SDS011;10116;53.112;7.356;2023-05-21T14:27:53;7.10;;;6.40;;
19907;SDS011;10116;53.112;7.356;2023-05-21T14:30:19;5.93;;;5.53;;
19907;SDS011;10116;53.112;7.356;2023-05-21T14:32:44;7.20;;;6.60;;
19907;SDS011;10116;53.112;7.356;2023-05-21T14:35:10;7.07;;;6.50;;
19907;SDS011;10116;53.112;7.356;2023-05-21T14:37:35;6.67;;;6.17;;
19907;SDS011;10116;53.112;7.356;2023-05-21T14:40:01;7.10;;;6.50;;
19907;SDS011;10116;53.112;7.356;2023-05-21T14:42:29;6.13;;;5.47;;
19907;SDS011;10116;53.112;7.356;2023-05-21T14:44:55;6.10;;;5.60;;
19907;SDS011;10116;53.112;7.356;2023-05-21T14:47:20;6.47;;;5.97;;
19907;SDS011;10116;53.112;7.356;2023-05-21T14:49:46;6.33;;;5.73;;
19907;SDS011;10116;53.112;7.356;2023-05-21T14:52:11;6.30;;;5.80;;
19907;SDS011;10116;53.112;7.356;2023-05-21T14:54:37;6.87;;;6.30;;
19907;SDS011;10116;53.112;7.356;2023-05-21T14:57:03;6.83;;;6.30;;
19907;SDS011;10116;53.112;7.356;2023-05-21T14:59:28;6.33;;;5.90;;
19907;SDS011;10116;53.112;7.356;2023-05-21T15:01:54;5.80;;;5.33;;
19907;SDS011;10116;53.112;7.356;2023-05-21T15:04:20;5.97;;;5.47;;
19907;SDS011;10116;53.112;7.356;2023-05-21T15:06:46;7.83;;;5.97;;
19907;SDS011;10116;53.112;7.356;2023-05-21T15:09:12;7.00;;;6.30;;
19907;SDS011;10116;53.112;7.356;2023-05-21T15:11:38;6.27;;;5.80;;
19907;SDS011;10116;53.112;7.356;2023-05-21T15:14:04;6.80;;;6.00;;
19907;SDS011;10116;53.112;7.356;2023-05-21T15:16:29;6.23;;;5.70;;
19907;SDS011;10116;53.112;7.356;2023-05-21T15:18:55;6.50;;;5.90;;
19907;SDS011;10116;53.112;7.356;2023-05-21T15:21:21;5.57;;;5.17;;